Time;durP1;ratioP1;P1;durP2;ratioP2;P2;SDS_P1;SDS_P2;PMS_P1;PMS_P2;Temp;Humidity;BMP_temperature;BMP_pressure;BME280_temperature;BME280_humidity;BME280_pressure;Samples;Min_cycle;Max_cycle;Signal;HPM_P1;HPM_P2
2020/12/28 00:01:41;;;;;;;18.98;6.55;;;;;;;4.71;100.00;101366.39;1717732;83;21221;-54
2020/12/28 00:04:09;;;;;;;19.55;6.30;;;;;;;4.69;100.00;101350.47;1739202;82;21202;-54
2020/12/28 00:06:37;;;;;;;21.27;7.67;;;;;;;4.67;100.00;101344.70;1724400;82;21178;-53
2020/12/28 00:09:06;;;;;;;18.90;7.97;;;;;;;4.64;100.00;101360.64;1761194;81;21182;-53
2020/12/28 00:11:34;;;;;;;22.48;6.95;;;;;;;4.61;100.00;101320.81;1731005;82;21550;-53
2020/12/28 00:14:02;;;;;;;22.42;7.50;;;;;;;4.60;100.00;101315.93;1761162;81;21114;-53
2020/12/28 00:16:29;;;;;;;22.05;6.85;;;;;;;4.58;100.00;101334.53;1730938;82;21125;-53
2020/12/28 00:18:57;;;;;;;28.40;7.78;;;;;;;4.55;100.00;101343.84;1761396;81;21146;-53
2020/12/28 00:21:25;;;;;;;19.52;7.70;;;;;;;4.52;100.00;101336.31;1731121;82;21049;-53
2020/12/28 00:23:53;;;;;;;26.25;7.83;;;;;;;4.50;100.00;101340.28;1761469;81;22163;-53
2020/12/28 00:26:21;;;;;;;22.42;8.38;;;;;;;4.49;100.00;101322.58;1731090;82;21118;-53
2020/12/28 00:28:48;;;;;;;19.40;7.45;;;;;;;4.50;100.00;101320.36;1761352;81;21115;-53
2020/12/28 00:31:16;;;;;;;25.25;8.20;;;;;;;4.51;100.00;101331.42;1731097;82;21071;-53
2020/12/28 00:33:43;;;;;;;18.15;7.45;;;;;;;4.51;100.00;101307.98;1761308;81;21063;-53
2020/12/28 00:36:15;;;;;;;16.82;8.30;;;;;;;4.50;100.00;101305.75;1732262;81;21381;-53
2020/12/28 00:38:42;;;;;;;20.82;7.65;;;;;;;4.54;100.00;101319.92;1808085;79;21043;-53
2020/12/28 00:41:12;;;;;;;23.52;7.95;;;;;;;4.55;100.00;101296.03;1762953;81;21145;-53
2020/12/28 00:43:43;;;;;;;21.30;6.90;;;;;;;4.57;100.00;101321.25;1808149;79;21102;-53
2020/12/28 00:46:12;;;;;;;22.45;7.72;;;;;;;4.58;100.00;101319.93;1763018;81;21161;-53
2020/12/28 00:48:41;;;;;;;24.65;8.55;;;;;;;4.61;100.00;101320.81;1808220;79;21359;-53
2020/12/28 00:51:13;;;;;;;18.42;7.62;;;;;;;4.60;100.00;101303.98;1808036;79;21110;-53
2020/12/28 00:53:41;;;;;;;21.45;8.08;;;;;;;4.64;100.00;101307.52;1808190;79;21107;-53
2020/12/28 00:56:09;;;;;;;23.38;8.05;;;;;;;4.67;100.00;101312.83;1734917;81;21580;-53
2020/12/28 00:58:37;;;;;;;18.92;7.92;;;;;;;4.68;100.00;101315.49;1756042;79;21169;-53
2020/12/28 01:01:05;;;;;;;20.15;7.00;;;;;;;4.70;100.00;101287.16;1762858;81;21792;-53
2020/12/28 01:03:33;;;;;;;20.40;7.78;;;;;;;4.74;100.00;101295.98;1808198;79;21075;-53
2020/12/28 01:06:08;;;;;;;29.10;8.30;;;;;;;4.75;100.00;101287.13;1754710;80;21241;-53
2020/12/28 01:08:36;;;;;;;22.27;7.67;;;;;;;4.77;100.00;101277.83;1756197;81;21131;-53
2020/12/28 01:11:04;;;;;;;27.45;8.78;;;;;;;4.79;100.00;101267.66;1726400;83;21150;-53
2020/12/28 01:13:32;;;;;;;19.57;8.53;;;;;;;4.82;100.00;101272.95;1756055;81;21454;-53
2020/12/28 01:15:59;;;;;;;25.48;8.68;;;;;;;4.80;100.00;101274.73;1726205;83;21134;-53
2020/12/28 01:18:29;;;;;;;23.38;8.75;;;;;;;4.80;100.00;101278.72;1756039;81;21558;-53
2020/12/28 01:21:01;;;;;;;24.40;8.55;;;;;;;4.82;100.00;101274.28;1726099;82;21154;-53
2020/12/28 01:23:31;;;;;;;26.62;8.10;;;;;;;4.81;100.00;101275.17;1754447;81;21559;-53
2020/12/28 01:26:01;;;;;;;20.92;8.25;;;;;;;4.78;100.00;101269.88;1725958;82;21411;-53
2020/12/28 01:28:30;;;;;;;33.40;8.00;;;;;;;4.77;100.00;101284.05;1756027;81;21202;-53
2020/12/28 01:30:58;;;;;;;19.48;7.55;;;;;;;4.75;100.00;101276.49;1726427;82;21283;-53
2020/12/28 01:33:44;;;;;;;21.50;8.93;;;;;;;4.77;100.00;101256.15;1756218;81;21078;-53
2020/12/28 01:36:13;;;;;;;24.77;8.23;;;;;;;4.80;100.00;101263.20;1706462;83;21150;-53
2020/12/28 01:38:43;;;;;;;18.70;6.87;;;;;;;4.77;100.00;101248.18;1739985;82;21213;-52
2020/12/28 01:41:10;;;;;;;28.57;9.45;;;;;;;4.81;100.00;101245.05;1702420;84;21154;-53
2020/12/28 01:43:40;;;;;;;25.65;9.20;;;;;;;4.81;100.00;101248.60;1702240;84;21174;-52
2020/12/28 01:46:07;;;;;;;23.95;8.40;;;;;;;4.82;100.00;101248.14;1702536;84;21189;-53
2020/12/28 01:48:37;;;;;;;26.70;8.90;;;;;;;4.83;100.00;101227.33;1702238;84;21221;-53
2020/12/28 01:51:07;;;;;;;23.32;9.65;;;;;;;4.83;100.00;101243.27;1702523;84;21457;-53
2020/12/28 01:53:36;;;;;;;24.72;9.68;;;;;;;4.81;100.00;101222.03;1702551;84;21113;-53
2020/12/28 01:56:06;;;;;;;28.47;9.83;;;;;;;4.83;100.00;101226.89;1702277;84;21122;-53
2020/12/28 01:58:43;;;;;;;26.30;9.97;;;;;;;4.88;100.00;101236.19;1873207;76;22636;-53
2020/12/28 02:01:11;;;;;;;35.33;9.40;;;;;;;4.82;100.00;101222.47;1841073;78;20903;-53
2020/12/28 02:03:39;;;;;;;24.60;9.30;;;;;;;4.83;100.00;101229.55;1841012;78;21348;-52
2020/12/28 02:06:14;;;;;;;27.73;10.13;;;;;;;4.84;100.00;101243.27;1822816;78;20977;-52
2020/12/28 02:08:42;;;;;;;22.90;9.08;;;;;;;4.86;100.00;101226.87;1840994;78;21151;-52
2020/12/28 02:11:10;;;;;;;30.95;10.13;;;;;;;4.88;100.00;101208.29;1841070;77;20920;-52
2020/12/28 02:13:40;;;;;;;28.98;10.63;;;;;;;4.90;100.00;101215.81;1841054;78;21021;-52
2020/12/28 02:16:10;;;;;;;34.85;10.20;;;;;;;4.91;100.00;101200.73;1824050;78;21354;-52
2020/12/28 02:18:39;;;;;;;31.87;10.10;;;;;;;4.91;100.00;101189.67;1840642;78;21001;-53
2020/12/28 02:21:08;;;;;;;26.55;10.20;;;;;;;4.92;100.00;101187.88;1840887;78;20977;-52
2020/12/28 02:23:36;;;;;;;28.57;10.95;;;;;;;4.93;100.00;101194.96;1840957;78;21100;-53
2020/12/28 02:26:04;;;;;;;26.80;11.48;;;;;;;4.92;100.00;101186.55;1841048;78;21048;-53
2020/12/28 02:28:32;;;;;;;35.43;12.07;;;;;;;4.92;100.00;101189.20;1840976;78;21184;-53
2020/12/28 02:31:00;;;;;;;31.57;11.90;;;;;;;4.92;100.00;101170.61;1840963;78;21069;-53
2020/12/28 02:33:35;;;;;;;27.20;11.20;;;;;;;4.93;100.00;101179.02;1840773;78;21009;-53
2020/12/28 02:36:08;;;;;;;26.57;11.50;;;;;;;4.94;100.00;101180.78;1840661;78;21151;-53
2020/12/28 02:38:36;;;;;;;27.90;12.37;;;;;;;4.93;100.00;101173.70;1828199;78;21157;-53
2020/12/28 02:41:05;;;;;;;28.12;12.85;;;;;;;4.92;100.00;101163.53;1828015;78;21124;-52
2020/12/28 02:43:34;;;;;;;30.68;12.63;;;;;;;4.91;100.00;101159.11;1825335;78;21070;-52
2020/12/28 02:46:22;;;;;;;30.65;12.47;;;;;;;4.87;100.00;101168.86;1760320;80;21077;-52
2020/12/28 02:49:08;;;;;;;38.40;13.80;;;;;;;4.90;100.00;101152.46;1873172;76;22609;-53
2020/12/28 02:51:40;;;;;;;33.02;13.22;;;;;;;4.82;100.00;101160.04;1781063;78;21040;-54
2020/12/28 02:54:19;;;;;;;31.87;12.60;;;;;;;4.80;100.00;101168.47;1734114;82;21524;-54
2020/12/28 02:57:05;;;;;;;31.95;13.35;;;;;;;4.80;100.00;101165.80;1841055;78;21009;-52
2020/12/28 02:59:52;;;;;;;32.80;13.90;;;;;;;4.80;100.00;101153.84;1841097;78;21143;-52
2020/12/28 03:02:38;;;;;;;28.70;12.95;;;;;;;4.82;100.00;101163.13;1841108;77;20925;-52
2020/12/28 03:05:24;;;;;;;31.90;14.30;;;;;;;4.81;100.00;101154.28;1841052;78;20970;-52
2020/12/28 03:08:05;;;;;;;35.95;14.63;;;;;;;4.82;100.00;101144.52;1769130;78;21342;-53
2020/12/28 03:10:52;;;;;;;35.43;13.38;;;;;;;4.81;100.00;101151.63;1841028;78;20973;-53
2020/12/28 03:13:38;;;;;;;30.35;13.43;;;;;;;4.83;100.00;101147.62;1840983;78;20882;-53
2020/12/28 03:16:24;;;;;;;31.12;14.20;;;;;;;4.85;100.00;101151.15;1840913;78;21088;-52
2020/12/28 03:19:10;;;;;;;39.73;14.95;;;;;;;4.86;100.00;101147.59;1841032;77;20938;-53
2020/12/28 03:21:42;;;;;;;31.37;13.30;;;;;;;4.91;100.00;101170.17;1778136;78;21450;-53
2020/12/28 03:24:28;;;;;;;26.27;13.68;;;;;;;4.92;100.00;101148.92;1840980;77;21075;-54
2020/12/28 03:27:15;;;;;;;31.73;14.18;;;;;;;4.94;100.00;101148.89;1840881;78;20882;-53
2020/12/28 03:29:45;;;;;;;29.23;13.30;;;;;;;4.94;100.00;101148.89;1773622;78;21136;-53
2020/12/28 03:32:31;;;;;;;32.48;13.18;;;;;;;4.97;100.00;101151.53;1840942;78;21009;-52
2020/12/28 03:35:19;;;;;;;29.40;12.58;;;;;;;5.00;100.00;101144.90;1840987;78;21187;-53
2020/12/28 03:38:02;;;;;;;43.68;15.15;;;;;;;5.01;100.00;101158.63;1828085;78;21151;-53
2020/12/28 03:40:49;;;;;;;32.80;12.82;;;;;;;5.01;100.00;101155.97;1824899;78;21305;-53
2020/12/28 03:43:35;;;;;;;33.83;12.33;;;;;;;5.03;100.00;101155.51;1824976;78;21030;-53
2020/12/28 03:46:21;;;;;;;34.95;13.62;;;;;;;5.03;100.00;101134.25;1824890;78;21000;-53
2020/12/28 03:49:08;;;;;;;40.12;13.98;;;;;;;5.01;100.00;101125.40;1824771;78;21412;-53
2020/12/28 03:51:54;;;;;;;34.38;13.25;;;;;;;5.02;100.00;101118.73;1824825;78;21145;-53
2020/12/28 03:54:40;;;;;;;37.38;13.43;;;;;;;5.03;100.00;101115.64;1824863;78;21142;-53
2020/12/28 03:57:26;;;;;;;30.30;14.05;;;;;;;5.04;100.00;101105.45;1824900;78;20914;-54
2020/12/28 04:00:13;;;;;;;33.53;14.10;;;;;;;5.06;100.00;101103.66;1824450;78;20999;-52
2020/12/28 04:02:42;;;;;;;34.40;14.40;;;;;;;5.03;100.00;101115.64;1824248;78;21354;-53
2020/12/28 04:05:25;;;;;;;34.87;13.40;;;;;;;5.07;100.00;101116.05;1889564;76;22733;-52
2020/12/28 04:08:08;;;;;;;34.40;13.22;;;;;;;5.02;100.00;101123.18;1783946;77;20965;-52
2020/12/28 04:10:54;;;;;;;31.82;13.72;;;;;;;5.01;100.00;101091.72;1860604;77;21497;-52
2020/12/28 04:13:40;;;;;;;33.13;13.65;;;;;;;5.02;100.00;101104.11;1860361;77;20996;-52
2020/12/28 04:16:08;;;;;;;42.85;15.30;;;;;;;5.00;100.00;101111.67;1860384;77;21036;-52
2020/12/28 04:18:36;;;;;;;31.85;14.40;;;;;;;5.00;100.00;101119.19;1860589;77;21067;-53
2020/12/28 04:21:03;;;;;;;35.68;14.80;;;;;;;4.98;100.00;101117.45;1860536;77;21319;-53
2020/12/28 04:23:30;;;;;;;32.88;13.83;;;;;;;4.96;100.00;101132.49;1860505;77;21452;-53
2020/12/28 04:25:58;;;;;;;34.85;14.07;;;;;;;4.96;100.00;101128.50;1860316;77;21016;-53
2020/12/28 04:28:26;;;;;;;32.33;14.15;;;;;;;4.94;100.00;101131.63;1860482;77;20965;-54
2020/12/28 04:30:54;;;;;;;35.83;14.38;;;;;;;4.96;100.00;101113.45;1860303;77;20977;-52
2020/12/28 04:33:21;;;;;;;36.50;14.80;;;;;;;4.97;100.00;101136.91;1860437;77;21126;-52
2020/12/28 04:35:49;;;;;;;33.30;14.05;;;;;;;4.96;100.00;101125.84;1860299;77;21311;-52
2020/12/28 04:38:17;;;;;;;32.50;13.75;;;;;;;4.98;100.00;101140.05;1833062;77;21434;-52
2020/12/28 04:40:45;;;;;;;30.60;13.30;;;;;;;4.98;100.00;101134.72;1830098;77;21062;-53
2020/12/28 04:43:13;;;;;;;26.57;12.95;;;;;;;5.01;100.00;101141.34;1807471;78;21027;-53
2020/12/28 04:45:41;;;;;;;36.48;12.98;;;;;;;4.99;100.00;101139.15;1830096;78;21138;-53
2020/12/28 04:48:09;;;;;;;32.45;13.20;;;;;;;5.00;100.00;101138.25;1830150;77;22388;-53
2020/12/28 04:50:38;;;;;;;30.30;13.58;;;;;;;5.01;100.00;101142.67;1830127;78;21129;-53
2020/12/28 04:53:06;;;;;;;30.62;13.38;;;;;;;5.01;100.00;101137.36;1830121;78;21487;-53
2020/12/28 04:55:33;;;;;;;31.85;13.05;;;;;;;5.00;100.00;101120.98;1830178;78;20947;-53
2020/12/28 04:58:01;;;;;;;32.33;13.62;;;;;;;5.02;100.00;101112.55;1830050;78;21106;-53
2020/12/28 05:00:28;;;;;;;29.72;12.65;;;;;;;5.02;100.00;101112.55;1830197;78;21289;-53
2020/12/28 05:02:56;;;;;;;34.85;13.90;;;;;;;5.02;100.00;101112.55;1829975;78;21082;-53
2020/12/28 05:05:23;;;;;;;35.20;14.05;;;;;;;5.02;100.00;101106.77;1830033;77;21041;-53
2020/12/28 05:07:51;;;;;;;33.28;13.05;;;;;;;5.04;100.00;101097.47;1830107;78;21101;-53
2020/12/28 05:10:23;;;;;;;33.53;12.75;;;;;;;5.03;100.00;101105.01;1830042;78;21134;-53
2020/12/28 05:12:51;;;;;;;31.57;13.05;;;;;;;5.02;100.00;101129.36;1830243;78;21428;-53
2020/12/28 05:15:19;;;;;;;34.60;14.10;;;;;;;5.04;100.00;101109.43;1829884;78;21273;-52
2020/12/28 05:17:53;;;;;;;28.50;13.38;;;;;;;5.05;100.00;101116.52;1829563;78;21008;-52
2020/12/28 05:20:23;;;;;;;32.73;13.85;;;;;;;5.08;100.00;101101.87;1829659;78;28606;-52
2020/12/28 05:22:52;;;;;;;37.90;15.30;;;;;;;5.06;100.00;101097.02;1829540;78;21107;-52
2020/12/28 05:25:24;;;;;;;36.85;15.75;;;;;;;5.06;100.00;101103.66;1829403;78;21535;-52
2020/12/28 05:27:52;;;;;;;40.78;16.37;;;;;;;5.04;100.00;101100.12;1829484;78;21055;-53
2020/12/28 05:30:20;;;;;;;38.88;16.10;;;;;;;5.05;100.00;101075.31;1744672;78;21126;-53
2020/12/28 05:32:48;;;;;;;33.85;14.50;;;;;;;5.06;100.00;101089.04;1829666;78;21216;-53
2020/12/28 05:35:16;;;;;;;35.98;14.78;;;;;;;5.09;100.00;101097.45;1829553;78;21331;-52
2020/12/28 05:37:48;;;;;;;31.65;12.55;;;;;;;5.11;100.00;101098.32;1849623;77;21186;-53
2020/12/28 05:40:15;;;;;;;34.05;13.08;;;;;;;5.16;100.00;101101.36;1859673;77;21059;-52
2020/12/28 05:42:53;;;;;;;30.00;13.20;;;;;;;5.21;100.00;101093.83;1859694;77;20929;-53
2020/12/28 05:45:21;;;;;;;26.45;11.70;;;;;;;5.26;100.00;101108.83;1859643;77;21131;-52
2020/12/28 05:47:56;;;;;;;25.85;12.65;;;;;;;5.29;100.00;101106.14;1859769;77;20961;-54
2020/12/28 05:50:31;;;;;;;29.70;12.43;;;;;;;5.30;100.00;101116.34;1859921;77;21354;-53
2020/12/28 05:53:01;;;;;;;27.13;12.80;;;;;;;5.28;100.00;101103.05;1859592;77;21103;-53
2020/12/28 05:55:30;;;;;;;27.93;12.73;;;;;;;5.30;100.00;101097.73;1859813;77;21523;-54
2020/12/28 05:57:59;;;;;;;30.48;12.60;;;;;;;5.30;100.00;101099.06;1859668;77;21535;-52
2020/12/28 06:00:26;;;;;;;26.57;12.47;;;;;;;5.30;100.00;101105.70;1859759;77;21162;-53
2020/12/28 06:02:54;;;;;;;25.48;12.07;;;;;;;5.31;100.00;101086.20;1859821;77;21926;-53
2020/12/28 06:05:21;;;;;;;25.20;11.57;;;;;;;5.31;100.00;101083.55;1859531;76;21402;-52
2020/12/28 06:07:49;;;;;;;28.02;12.33;;;;;;;5.31;100.00;101082.21;1859793;77;21174;-53
2020/12/28 06:10:19;;;;;;;42.65;14.23;;;;;;;5.33;100.00;101091.05;1827449;77;21127;-52
2020/12/28 06:12:57;;;;;;;28.87;12.75;;;;;;;5.35;100.00;101083.08;1859725;77;21139;-53
2020/12/28 06:15:25;;;;;;;26.97;12.35;;;;;;;5.39;100.00;101093.66;1859673;77;21401;-52
2020/12/28 06:17:54;;;;;;;27.77;11.48;;;;;;;5.42;100.00;101093.66;1859779;77;21059;-53
2020/12/28 06:20:31;;;;;;;26.15;11.15;;;;;;;5.49;100.00;101088.28;1859678;77;21012;-52
2020/12/28 06:23:05;;;;;;;30.68;13.15;;;;;;;5.52;100.00;101079.81;1859671;77;21131;-53
2020/12/28 06:25:32;;;;;;;28.40;11.78;;;;;;;5.56;100.00;101083.33;1859612;77;21475;-53
2020/12/28 06:28:00;;;;;;;33.02;13.48;;;;;;;5.60;100.00;101091.72;1859660;77;21362;-54
2020/12/28 06:30:28;;;;;;;26.40;11.30;;;;;;;5.63;100.00;101079.71;1859603;77;20973;-52
2020/12/28 06:33:04;;;;;;;25.97;12.60;;;;;;;5.65;100.00;101077.95;1859708;77;21054;-53
2020/12/28 06:35:32;;;;;;;30.60;11.05;;;;;;;5.69;100.00;101070.37;1859444;77;21134;-53
2020/12/28 06:38:01;;;;;;;30.12;11.43;;;;;;;5.73;100.00;101088.06;1831924;77;21094;-53
2020/12/28 06:40:40;;;;;;;26.00;11.28;;;;;;;5.77;100.00;101064.08;1824341;78;21338;-52
2020/12/28 06:43:10;;;;;;;34.65;12.37;;;;;;;5.78;100.00;101073.39;1824227;78;21549;-54
2020/12/28 06:45:39;;;;;;;30.43;12.47;;;;;;;5.80;100.00;101078.25;1824029;78;21047;-53
2020/12/28 06:48:24;;;;;;;29.42;11.88;;;;;;;5.85;100.00;101063.11;1824289;78;20982;-53
2020/12/28 06:50:53;;;;;;;30.43;11.75;;;;;;;5.87;100.00;101052.46;1824341;77;21400;-53
2020/12/28 06:53:27;;;;;;;31.30;11.90;;;;;;;5.90;100.00;101049.77;1824148;78;22215;-54
2020/12/28 06:56:07;;;;;;;33.45;13.28;;;;;;;5.92;100.00;101038.65;1824014;77;21054;-53
2020/12/28 06:58:35;;;;;;;28.90;12.70;;;;;;;5.95;100.00;101038.61;1824191;78;20956;-53
2020/12/28 07:01:04;;;;;;;32.55;13.65;;;;;;;5.96;100.00;101043.03;1824105;78;20983;-53
2020/12/28 07:03:31;;;;;;;33.98;12.80;;;;;;;5.98;100.00;101035.91;1824190;78;21554;-53
2020/12/28 07:06:03;;;;;;;29.52;12.18;;;;;;;5.96;100.00;101039.04;1824111;78;21338;-53
2020/12/28 07:08:32;;;;;;;29.05;12.25;;;;;;;5.98;100.00;101041.70;1823987;77;21138;-53
2020/12/28 07:11:03;;;;;;;23.77;12.05;;;;;;;5.99;100.00;101036.34;1824231;77;21128;-55
2020/12/28 07:13:31;;;;;;;26.93;11.38;;;;;;;6.02;100.00;101042.98;1824115;78;21110;-54
2020/12/28 07:16:06;;;;;;;29.00;12.73;;;;;;;6.04;100.00;101036.33;1824325;78;21546;-53
2020/12/28 07:18:35;;;;;;;24.82;11.40;;;;;;;6.07;100.00;101022.08;1824283;78;21519;-53
2020/12/28 07:21:03;;;;;;;27.07;12.45;;;;;;;6.08;100.00;101016.75;1824215;78;20941;-53
2020/12/28 07:23:32;;;;;;;21.12;10.58;;;;;;;6.09;100.00;101011.86;1824153;78;20992;-54
2020/12/28 07:26:08;;;;;;;25.85;11.25;;;;;;;6.09;100.00;101011.86;1824146;78;20987;-52
2020/12/28 07:28:38;;;;;;;23.60;11.20;;;;;;;6.13;100.00;101026.02;1824225;77;20923;-54
2020/12/28 07:31:06;;;;;;;24.98;11.57;;;;;;;6.16;100.00;101016.66;1824171;78;21944;-53
2020/12/28 07:33:34;;;;;;;28.90;11.03;;;;;;;6.17;100.00;101022.42;1824141;78;21043;-55
2020/12/28 07:36:06;;;;;;;23.47;10.35;;;;;;;6.18;100.00;101021.52;1803840;78;21182;-53
2020/12/28 07:38:36;;;;;;;25.87;10.97;;;;;;;6.20;100.00;101029.03;1826181;78;21062;-54
2020/12/28 07:41:05;;;;;;;27.85;10.58;;;;;;;6.23;100.00;101012.15;1825901;78;21032;-54
2020/12/28 07:43:33;;;;;;;20.40;9.68;;;;;;;6.23;100.00;101012.15;1825969;78;21359;-54
2020/12/28 07:46:10;;;;;;;27.52;10.70;;;;;;;6.28;100.00;101008.50;1825776;78;21622;-55
2020/12/28 07:48:37;;;;;;;22.05;9.33;;;;;;;6.30;100.00;100997.84;1802898;78;21186;-53
2020/12/28 07:51:06;;;;;;;21.20;9.60;;;;;;;6.35;100.00;100995.12;1825890;78;20997;-54
2020/12/28 07:53:39;;;;;;;20.65;9.88;;;;;;;6.35;100.00;100995.12;1825911;78;20981;-55
2020/12/28 07:56:13;;;;;;;22.58;10.55;;;;;;;6.34;100.00;100991.57;1826052;78;21358;-53
2020/12/28 07:59:20;;;;;;;24.80;10.82;;;;;;;6.34;100.00;100984.91;1794936;78;21178;-55
2020/12/28 08:01:49;;;;;;;26.37;11.25;;;;;;;6.35;100.00;100986.67;1825903;78;21067;-53
2020/12/28 08:04:23;;;;;;;26.52;11.57;;;;;;;6.35;100.00;100986.67;1825775;78;21492;-53
2020/12/28 08:06:51;;;;;;;27.32;11.85;;;;;;;6.38;100.00;100980.44;1825923;78;21147;-54
2020/12/28 08:09:24;;;;;;;27.20;11.60;;;;;;;6.38;100.00;100988.42;1825892;78;21364;-55
2020/12/28 08:11:59;;;;;;;27.40;11.38;;;;;;;6.39;100.00;100976.87;1825871;78;21004;-53
2020/12/28 08:14:26;;;;;;;;;;;;;;;6.43;100.00;100982.58;1828629;78;20925;-55
2020/12/28 08:16:55;;;;;;;31.73;12.68;;;;;;;6.45;100.00;100989.66;1825842;78;20216;-54
2020/12/28 08:19:25;;;;;;;28.47;12.03;;;;;;;6.45;100.00;100979.44;1825884;78;21051;-54
2020/12/28 08:21:53;;;;;;;29.50;11.53;;;;;;;6.48;100.00;100975.86;1830557;76;21419;-53
2020/12/28 08:24:22;;;;;;;28.55;11.68;;;;;;;6.48;100.00;100976.72;1840522;77;21139;-54
2020/12/28 08:26:50;;;;;;;26.65;11.68;;;;;;;6.51;100.00;100967.34;1825734;78;21535;-54
2020/12/28 08:29:18;;;;;;;24.50;11.10;;;;;;;6.54;100.00;100979.76;1825720;78;21147;-55
2020/12/28 08:31:45;;;;;;;25.15;11.25;;;;;;;6.55;100.00;100963.77;1825721;78;21460;-53
2020/12/28 08:34:15;;;;;;;26.65;11.38;;;;;;;6.58;100.00;100958.39;1825811;78;21697;-53
2020/12/28 08:36:51;;;;;;;24.92;11.50;;;;;;;6.58;100.00;100948.17;1826532;78;21046;-53
2020/12/28 08:39:22;;;;;;;25.80;11.08;;;;;;;6.57;100.00;100953.97;1829547;78;21546;-53
2020/12/28 08:42:00;;;;;;;30.12;11.65;;;;;;;6.61;100.00;100944.12;1829335;78;21105;-53
2020/12/28 08:44:36;;;;;;;26.87;11.75;;;;;;;6.64;100.00;100937.88;1829429;78;21195;-54
2020/12/28 08:47:11;;;;;;;24.67;9.93;;;;;;;6.64;100.00;100937.88;1829336;78;21118;-54
2020/12/28 08:49:42;;;;;;;21.73;10.80;;;;;;;6.65;100.00;100951.19;1829233;78;21095;-54
2020/12/28 08:52:18;;;;;;;27.15;11.70;;;;;;;6.68;100.00;100936.91;1829542;78;21102;-53
2020/12/28 08:54:58;;;;;;;21.02;10.15;;;;;;;6.68;100.00;100936.91;1829470;78;21008;-54
2020/12/28 08:57:28;;;;;;;29.57;11.10;;;;;;;6.70;100.00;100942.66;1829586;78;21059;-53
2020/12/28 08:59:59;;;;;;;29.77;11.53;;;;;;;6.73;100.00;100943.05;1829503;78;21360;-52
2020/12/28 09:02:27;;;;;;;23.27;10.08;;;;;;;6.76;100.00;100934.13;1829587;78;21169;-53
2020/12/28 09:04:55;;;;;;;22.25;11.30;;;;;;;6.79;100.00;100938.97;1829416;78;21288;-54
2020/12/28 09:07:23;;;;;;;28.00;10.70;;;;;;;6.81;100.00;100933.16;1829516;78;21145;-53
2020/12/28 09:09:51;;;;;;;25.32;11.35;;;;;;;6.83;100.00;100943.34;1829529;78;21134;-53
2020/12/28 09:12:19;;;;;;;24.87;10.40;;;;;;;6.87;100.00;100928.19;1829521;78;22255;-54
2020/12/28 09:14:47;;;;;;;21.82;10.35;;;;;;;6.87;100.00;100928.19;1829508;78;20984;-54
2020/12/28 09:17:17;;;;;;;23.18;10.88;;;;;;;6.88;100.00;100932.61;1829399;78;21075;-53
2020/12/28 09:19:44;;;;;;;23.25;10.38;;;;;;;6.86;100.00;100929.96;1829601;78;21498;-54
2020/12/28 09:22:12;;;;;;;23.85;10.93;;;;;;;6.92;100.00;100942.75;1829526;78;21126;-53
2020/12/28 09:24:41;;;;;;;24.63;10.80;;;;;;;6.93;100.00;100942.73;1829523;78;21192;-54
2020/12/28 09:27:08;;;;;;;24.55;11.05;;;;;;;6.98;100.00;100923.54;1829518;78;21129;-54
2020/12/28 09:29:37;;;;;;;23.15;10.68;;;;;;;6.98;100.00;100923.54;1829533;78;21031;-54
2020/12/28 09:32:04;;;;;;;27.75;11.80;;;;;;;7.01;100.00;100917.28;1829419;78;21055;-54
2020/12/28 09:34:32;;;;;;;28.32;11.00;;;;;;;7.00;100.00;100897.73;1829572;78;21102;-53
2020/12/28 09:37:05;;;;;;;22.00;10.08;;;;;;;7.00;100.00;100897.73;1840486;77;21364;-56
2020/12/28 09:39:33;;;;;;;30.48;12.15;;;;;;;7.05;100.00;100894.09;1859702;77;21501;-54
2020/12/28 09:42:01;;;;;;;22.77;10.32;;;;;;;7.05;100.00;100896.33;1859713;77;21159;-55
2020/12/28 09:44:29;;;;;;;26.25;10.40;;;;;;;7.09;100.00;100897.16;1859591;77;21182;-54
2020/12/28 09:46:57;;;;;;;25.37;9.90;;;;;;;7.09;100.00;100890.02;1859704;77;21115;-54
2020/12/28 09:49:29;;;;;;;25.70;10.53;;;;;;;7.10;100.00;100878.92;1859668;77;21130;-53
2020/12/28 09:51:59;;;;;;;28.60;11.30;;;;;;;7.11;100.00;100893.53;1859627;77;21162;-53
2020/12/28 09:54:26;;;;;;;25.45;11.43;;;;;;;7.13;100.00;100873.52;1848878;76;21078;-54
2020/12/28 09:56:56;;;;;;;20.60;10.23;;;;;;;7.13;100.00;100873.52;1857388;76;21465;-54
2020/12/28 09:59:24;;;;;;;22.05;10.72;;;;;;;7.12;100.00;100862.44;1839651;77;21157;-53
2020/12/28 10:01:52;;;;;;;21.00;10.03;;;;;;;7.12;100.00;100865.97;1840197;77;21699;-55
2020/12/28 10:04:20;;;;;;;23.70;10.60;;;;;;;7.12;100.00;100865.97;1805294;77;21155;-54
2020/12/28 10:06:48;;;;;;;23.35;9.65;;;;;;;7.11;100.00;100864.20;1838307;77;21177;-61
2020/12/28 10:09:17;;;;;;;19.92;9.63;;;;;;;7.08;100.00;100849.61;1844510;77;21173;-62
2020/12/28 10:11:45;;;;;;;22.13;10.55;;;;;;;7.05;100.00;100849.67;1810537;77;21173;-61
2020/12/28 10:14:15;;;;;;;20.70;9.78;;;;;;;7.04;100.00;100851.91;1788328;80;22344;-62
2020/12/28 10:16:43;;;;;;;17.23;9.80;;;;;;;7.04;100.00;100843.91;1767362;80;21572;-62
2020/12/28 10:19:14;;;;;;;20.15;9.40;;;;;;;7.05;100.00;100837.67;1740636;80;21083;-62
2020/12/28 10:21:42;;;;;;;23.45;9.68;;;;;;;7.03;100.00;100856.82;1777874;80;21097;-62
2020/12/28 10:24:11;;;;;;;18.48;9.93;;;;;;;7.03;100.00;100856.82;1767249;80;21127;-62
2020/12/28 10:26:38;;;;;;;18.30;9.75;;;;;;;7.03;100.00;100858.16;1784291;80;21174;-61
2020/12/28 10:29:08;;;;;;;18.27;9.83;;;;;;;7.04;100.00;100867.91;1787915;80;21195;-62
2020/12/28 10:31:38;;;;;;;21.55;10.53;;;;;;;7.06;100.00;100855.42;1806382;77;21143;-62
2020/12/28 10:34:05;;;;;;;23.98;11.53;;;;;;;7.10;100.00;100861.59;1781040;80;21128;-55
2020/12/28 10:36:35;;;;;;;21.55;11.30;;;;;;;7.13;100.00;100859.72;1786616;79;21047;-62
2020/12/28 10:39:06;;;;;;;22.02;9.95;;;;;;;7.16;100.00;100847.66;1789774;79;21530;-55
2020/12/28 10:41:34;;;;;;;16.75;9.08;;;;;;;7.21;100.00;100834.72;1783572;79;22074;-62
2020/12/28 10:44:06;;;;;;;18.00;9.55;;;;;;;7.21;100.00;100832.05;1778636;79;21225;-61
2020/12/28 10:46:36;;;;;;;18.92;9.55;;;;;;;7.23;100.00;100836.89;1788697;79;21062;-62
2020/12/28 10:49:07;;;;;;;17.30;10.05;;;;;;;7.28;100.00;100834.53;1788518;79;21099;-61
2020/12/28 10:51:36;;;;;;;23.77;10.58;;;;;;;7.32;100.00;100818.03;1779102;79;22241;-54
2020/12/28 10:54:03;;;;;;;23.10;10.45;;;;;;;7.31;100.00;100815.84;1787828;79;21196;-54
2020/12/28 10:56:31;;;;;;;21.30;10.90;;;;;;;7.31;100.00;100815.84;1786307;80;21111;-54
2020/12/28 10:58:59;;;;;;;24.27;10.93;;;;;;;7.33;100.00;100809.11;1760376;80;21162;-53
2020/12/28 11:01:29;;;;;;;21.77;11.12;;;;;;;7.34;100.00;100800.20;1778520;80;21175;-53
2020/12/28 11:03:57;;;;;;;18.60;9.78;;;;;;;7.35;100.00;100795.30;1774351;80;21201;-54
2020/12/28 11:06:34;;;;;;;15.80;9.40;;;;;;;7.34;100.00;100788.20;1758869;80;21180;-53
2020/12/28 11:09:05;;;;;;;19.92;10.48;;;;;;;7.33;100.00;100794.92;1726174;81;21102;-54
2020/12/28 11:11:33;;;;;;;23.62;10.95;;;;;;;7.31;100.00;100801.61;1761794;81;21058;-54
2020/12/28 11:14:01;;;;;;;20.75;10.43;;;;;;;7.29;100.00;100818.09;1759724;81;21513;-54
2020/12/28 11:16:29;;;;;;;21.07;10.90;;;;;;;7.27;100.00;100807.45;1751836;81;21455;-54
2020/12/28 11:18:56;;;;;;;19.98;10.05;;;;;;;7.28;100.00;100799.00;1756436;81;21162;-54
2020/12/28 11:21:24;;;;;;;19.98;10.38;;;;;;;7.31;100.00;100799.83;1757962;81;21207;-54
2020/12/28 11:23:59;;;;;;;19.42;9.63;;;;;;;7.32;100.00;100806.03;1759768;81;21232;-55
2020/12/28 11:26:31;;;;;;;21.90;10.50;;;;;;;7.30;100.00;100799.85;1756693;81;21054;-56
2020/12/28 11:29:04;;;;;;;19.37;10.05;;;;;;;7.30;100.00;100799.85;1761493;81;21196;-63
2020/12/28 11:31:32;;;;;;;22.32;10.45;;;;;;;7.27;100.00;100803.45;1760354;81;21196;-63